Time;durP1;ratioP1;P1;durP2;ratioP2;P2;SDS_P1;SDS_P2;PMS_P1;PMS_P2;Temp;Humidity;BMP_temperature;BMP_pressure;BME280_temperature;BME280_humidity;BME280_pressure;Samples;Min_cycle;Max_cycle;Signal;HPM_P1;HPM_P2
2022/10/05 00:02:19;;;;;;;11.50;5.23;;;;;;;9.33;100.00;100755.13;5040183;28;20961;-51
2022/10/05 00:04:48;;;;;;;3.80;3.40;;;;;;;9.43;100.00;100752.28;5032788;28;20454;-51
2022/10/05 00:07:16;;;;;;;8.03;4.10;;;;;;;9.50;100.00;100746.00;5032854;28;20588;-51
2022/10/05 00:09:55;;;;;;;6.90;4.53;;;;;;;9.52;100.00;100743.31;5032173;28;20459;-51
2022/10/05 00:12:24;;;;;;;8.87;4.20;;;;;;;9.48;100.00;100741.63;5028418;28;20931;-51
2022/10/05 00:14:54;;;;;;;10.27;2.50;;;;;;;9.45;100.00;100741.63;5029271;28;20582;-52
2022/10/05 00:17:22;;;;;;;4.40;3.13;;;;;;;9.46;100.00;100733.69;5030844;28;20471;-51
2022/10/05 00:19:51;;;;;;;12.03;4.07;;;;;;;9.47;100.00;100724.81;5030380;28;20467;-51
2022/10/05 00:22:23;;;;;;;5.80;3.80;;;;;;;9.46;100.00;100723.06;5030675;28;20498;-51
2022/10/05 00:24:56;;;;;;;4.17;3.97;;;;;;;9.46;100.00;100724.84;5017392;28;20459;-52
2022/10/05 00:27:41;;;;;;;5.90;4.33;;;;;;;9.12;100.00;100717.44;5030598;28;20490;-51
2022/10/05 00:30:19;;;;;;;4.00;2.90;;;;;;;9.23;100.00;100719.03;5021141;28;20543;-51
2022/10/05 00:32:46;;;;;;;2.90;2.80;;;;;;;9.46;100.00;100715.09;5030404;28;20447;-51
2022/10/05 00:35:14;;;;;;;5.27;4.50;;;;;;;9.29;100.00;100698.56;5042195;28;20509;-51
2022/10/05 00:37:41;;;;;;;3.03;2.73;;;;;;;9.48;100.00;100710.66;5040980;28;20478;-51
2022/10/05 00:40:52;;;;;;;5.03;3.23;;;;;;;9.38;100.00;100706.41;5030991;28;20999;-52
2022/10/05 00:43:29;;;;;;;3.73;3.20;;;;;;;9.66;100.00;100701.47;4989858;28;20451;-51
2022/10/05 00:46:08;;;;;;;3.57;2.80;;;;;;;9.61;100.00;100692.72;5017238;28;20976;-51
2022/10/05 00:49:08;;;;;;;9.10;2.83;;;;;;;9.54;100.00;100693.72;5029886;28;20464;-52
2022/10/05 00:51:43;;;;;;;2.20;2.10;;;;;;;9.54;100.00;100701.69;5029941;28;20941;-51
2022/10/05 00:54:28;;;;;;;2.60;2.50;;;;;;;9.48;100.00;100708.00;5029863;28;20491;-51
2022/10/05 00:57:21;;;;;;;2.37;2.17;;;;;;;9.42;100.00;100705.44;5029531;28;20483;-51
2022/10/05 01:00:03;;;;;;;2.77;2.67;;;;;;;9.59;100.00;100712.22;5030071;28;20529;-51
2022/10/05 01:02:39;;;;;;;2.57;2.47;;;;;;;9.60;100.00;100714.00;5039633;28;20544;-51
2022/10/05 01:05:21;;;;;;;2.37;2.17;;;;;;;9.60;100.00;100712.22;5034433;28;20457;-52
2022/10/05 01:07:57;;;;;;;2.40;2.30;;;;;;;9.53;100.00;100707.91;5029560;28;20484;-52
2022/10/05 01:10:34;;;;;;;5.03;2.00;;;;;;;9.46;100.00;100714.22;5032935;28;20460;-51
2022/10/05 01:13:05;;;;;;;2.03;1.83;;;;;;;9.49;100.00;100712.41;5026791;28;20459;-52
2022/10/05 01:15:54;;;;;;;2.83;2.63;;;;;;;9.50;100.00;100713.28;5029266;28;20514;-51
2022/10/05 01:18:37;;;;;;;3.83;2.43;;;;;;;9.54;100.00;100717.63;5029327;28;20456;-52
2022/10/05 01:21:11;;;;;;;1.10;1.00;;;;;;;9.53;100.00;100720.28;5029585;28;20491;-52
2022/10/05 01:23:46;;;;;;;1.40;1.30;;;;;;;9.77;100.00;100719.88;5039854;28;20872;-52
2022/10/05 01:26:47;;;;;;;3.90;2.13;;;;;;;9.52;100.00;100727.38;5022853;28;20537;-51
2022/10/05 01:29:44;;;;;;;2.80;2.33;;;;;;;9.40;100.00;100728.47;5030283;28;21002;-52
2022/10/05 01:32:16;;;;;;;1.67;1.47;;;;;;;9.27;100.00;100723.38;5029208;28;20439;-52
2022/10/05 01:35:00;;;;;;;1.73;1.63;;;;;;;9.26;100.00;100719.84;5029391;28;20455;-52
2022/10/05 01:37:34;;;;;;;1.80;1.70;;;;;;;9.37;100.00;100722.34;5029347;28;20991;-52
2022/10/05 01:40:11;;;;;;;2.93;2.23;;;;;;;9.38;100.00;100724.97;5041336;28;20500;-52
2022/10/05 01:42:55;;;;;;;15.73;1.43;;;;;;;9.41;100.00;100721.38;5016439;28;20495;-52
2022/10/05 01:45:25;;;;;;;1.90;1.60;;;;;;;9.46;100.00;100720.41;5029258;28;20538;-51
2022/10/05 01:48:08;;;;;;;2.43;2.23;;;;;;;9.49;100.00;100711.53;5038650;28;20559;-52
2022/10/05 01:50:56;;;;;;;0.90;0.90;;;;;;;9.54;100.00;100701.69;5030325;28;20964;-52
2022/10/05 01:53:36;;;;;;;2.90;2.80;;;;;;;9.56;100.00;100693.69;5040282;28;20463;-51
2022/10/05 01:56:31;;;;;;;4.03;1.20;;;;;;;9.61;100.00;100686.56;5019609;28;20483;-52
2022/10/05 01:59:22;;;;;;;3.47;1.37;;;;;;;9.48;100.00;100678.81;5023496;28;20455;-51
2022/10/05 02:02:03;;;;;;;1.60;1.50;;;;;;;9.61;100.00;100674.16;5030891;28;20480;-51
2022/10/05 02:04:36;;;;;;;3.73;2.57;;;;;;;9.56;100.00;100662.72;5028933;28;20510;-51
2022/10/05 02:07:28;;;;;;;2.70;2.20;;;;;;;9.70;100.00;100673.09;5029233;28;20527;-51
2022/10/05 02:10:04;;;;;;;4.90;2.20;;;;;;;9.79;100.00;100667.63;5042072;28;20501;-51
2022/10/05 02:12:36;;;;;;;3.87;1.40;;;;;;;9.87;100.00;100673.66;5028473;28;20455;-52
2022/10/05 02:15:12;;;;;;;1.60;1.50;;;;;;;9.80;100.00;100674.66;5028541;28;20459;-52
2022/10/05 02:17:49;;;;;;;4.77;2.77;;;;;;;9.89;100.00;100673.63;5028414;28;20481;-52
2022/10/05 02:20:22;;;;;;;3.37;2.47;;;;;;;9.62;100.00;100669.72;5042181;28;20443;-52
2022/10/05 02:22:53;;;;;;;5.03;2.03;;;;;;;9.71;100.00;100669.53;5035121;28;20491;-51
2022/10/05 02:25:29;;;;;;;9.00;3.00;;;;;;;9.71;100.00;100656.25;5043585;28;20447;-51
2022/10/05 02:28:03;;;;;;;1.97;1.83;;;;;;;9.42;100.00;100652.38;5027442;28;20506;-51
2022/10/05 02:30:32;;;;;;;3.87;2.47;;;;;;;8.97;100.00;100647.84;5026047;28;20960;-51
2022/10/05 02:33:06;;;;;;;85.30;3.53;;;;;;;8.91;100.00;100638.25;5039225;28;20948;-54
2022/10/05 02:35:32;;;;;;;1.30;1.20;;;;;;;8.80;100.00;100637.53;5033145;28;20506;-54
2022/10/05 02:38:18;;;;;;;1.47;1.37;;;;;;;8.66;100.00;100632.44;5032430;28;20877;-54
2022/10/05 02:41:27;;;;;;;1.80;1.43;;;;;;;8.93;100.00;100633.78;5032505;28;20443;-54
2022/10/05 02:44:02;;;;;;;0.60;0.60;;;;;;;9.06;100.00;100635.34;4990027;28;20878;-53
2022/10/05 02:46:47;;;;;;;0.70;0.70;;;;;;;8.93;100.00;100635.56;5036505;28;20556;-54
2022/10/05 02:49:37;;;;;;;0.93;0.93;;;;;;;8.97;100.00;100635.47;5021245;28;20447;-54
2022/10/05 02:52:20;;;;;;;0.87;0.80;;;;;;;8.96;100.00;100639.03;5042008;28;21028;-54
2022/10/05 02:55:16;;;;;;;1.43;0.77;;;;;;;9.09;100.00;100639.69;5032242;28;20447;-54
2022/10/05 02:57:57;;;;;;;1.37;1.27;;;;;;;9.13;100.00;100647.56;5043102;28;20851;-54
2022/10/05 03:00:28;;;;;;;1.70;1.30;;;;;;;9.17;100.00;100646.59;5037617;28;20520;-54
2022/10/05 03:03:02;;;;;;;2.90;1.87;;;;;;;9.30;100.00;100649.06;5047864;28;20968;-54
2022/10/05 03:05:29;;;;;;;1.60;1.47;;;;;;;9.44;100.00;100653.22;5038928;28;20831;-54
2022/10/05 03:08:20;;;;;;;1.60;1.50;;;;;;;9.42;100.00;100644.41;5038389;28;20460;-54
2022/10/05 03:11:07;;;;;;;1.90;1.80;;;;;;;9.29;100.00;100650.84;5040107;28;20463;-54
2022/10/05 03:13:51;;;;;;;1.17;1.07;;;;;;;9.22;100.00;100665.13;5025799;28;20446;-54
2022/10/05 03:16:33;;;;;;;1.37;1.03;;;;;;;9.19;100.00;100674.00;5037919;28;20562;-54
2022/10/05 03:19:24;;;;;;;1.23;1.13;;;;;;;9.14;100.00;100669.66;5039036;28;20455;-54
2022/10/05 03:22:09;;;;;;;1.50;1.40;;;;;;;9.27;100.00;100672.97;5040264;28;20887;-54
2022/10/05 03:24:49;;;;;;;1.50;1.40;;;;;;;9.24;100.00;100675.69;5037752;28;20476;-54
2022/10/05 03:27:40;;;;;;;1.33;1.23;;;;;;;9.26;100.00;100679.19;5037548;28;20479;-55
2022/10/05 03:30:18;;;;;;;2.07;1.97;;;;;;;9.16;100.00;100678.47;5022458;28;20471;-54
2022/10/05 03:33:07;;;;;;;1.10;1.00;;;;;;;9.21;100.00;100681.94;5039760;28;20450;-54
2022/10/05 03:35:43;;;;;;;1.93;0.97;;;;;;;9.22;100.00;100682.81;5037098;28;20514;-54
2022/10/05 03:38:36;;;;;;;0.70;0.67;;;;;;;9.25;100.00;100680.09;5044176;28;20485;-55
2022/10/05 03:41:39;;;;;;;1.93;1.83;;;;;;;9.29;100.00;100672.06;5044184;28;20475;-54
2022/10/05 03:44:21;;;;;;;1.87;1.77;;;;;;;9.40;100.00;100674.53;5044194;28;20509;-54
2022/10/05 03:47:14;;;;;;;2.20;2.10;;;;;;;9.50;100.00;100674.34;5030629;28;20971;-54
2022/10/05 03:49:56;;;;;;;1.70;1.60;;;;;;;9.57;100.00;100674.22;5041664;28;20464;-54
2022/10/05 03:52:40;;;;;;;1.33;1.23;;;;;;;9.55;100.00;100671.59;5025997;28;20516;-54
2022/10/05 03:55:15;;;;;;;3.53;1.57;;;;;;;9.86;100.00;100674.53;5035903;28;20565;-54
2022/10/05 03:57:43;;;;;;;1.90;1.80;;;;;;;9.77;100.00;100680.03;5040032;28;20954;-54
2022/10/05 04:00:16;;;;;;;3.87;3.50;;;;;;;9.61;100.00;100668.84;5043668;28;20458;-54
2022/10/05 04:02:59;;;;;;;5.47;3.10;;;;;;;9.34;100.00;100666.69;5038254;28;20518;-54
2022/10/05 04:05:30;;;;;;;2.07;1.27;;;;;;;9.49;100.00;100669.06;5025832;28;20463;-54
2022/10/05 04:08:34;;;;;;;1.60;1.50;;;;;;;9.77;100.00;100665.00;5036819;28;20452;-54
2022/10/05 04:11:06;;;;;;;2.57;2.20;;;;;;;9.67;100.00;100663.41;5036642;28;20455;-54
2022/10/05 04:13:38;;;;;;;1.67;1.57;;;;;;;9.79;100.00;100662.31;5042731;28;20444;-54
2022/10/05 04:16:14;;;;;;;2.33;2.00;;;;;;;9.64;100.00;100662.59;5038466;28;20475;-54
2022/10/05 04:19:00;;;;;;;2.03;1.70;;;;;;;9.46;100.00;100661.16;5040681;28;20525;-54
2022/10/05 04:21:34;;;;;;;3.07;2.67;;;;;;;9.37;100.00;100661.31;5043173;28;20452;-54
2022/10/05 04:24:27;;;;;;;2.53;1.20;;;;;;;9.61;100.00;100665.31;5043347;28;20446;-54
2022/10/05 04:27:02;;;;;;;1.13;1.03;;;;;;;9.65;100.00;100667.00;5038498;28;20486;-55
2022/10/05 04:29:40;;;;;;;0.63;0.60;;;;;;;9.69;100.00;100666.91;5036296;28;20942;-54
2022/10/05 04:32:19;;;;;;;0.80;0.77;;;;;;;9.53;100.00;100661.91;5028514;28;20451;-54
2022/10/05 04:35:20;;;;;;;3.30;1.73;;;;;;;9.49;100.00;100666.41;5040981;28;20509;-55
2022/10/05 04:37:49;;;;;;;1.20;1.13;;;;;;;9.70;100.00;100673.09;5023774;28;20475;-54
2022/10/05 04:40:37;;;;;;;1.60;1.50;;;;;;;10.01;100.00;100678.69;5035597;28;20456;-54
2022/10/05 04:43:18;;;;;;;1.70;1.50;;;;;;;10.09;100.00;100674.97;5038927;28;20487;-54
2022/10/05 04:46:01;;;;;;;5.93;2.33;;;;;;;10.14;100.00;100674.84;5042997;28;20440;-55
2022/10/05 04:48:45;;;;;;;2.77;1.23;;;;;;;10.31;100.00;100680.75;5042269;28;20454;-54
2022/10/05 04:51:30;;;;;;;1.47;1.37;;;;;;;10.34;100.00;100672.72;5039440;28;20841;-55
2022/10/05 04:54:10;;;;;;;2.47;1.33;;;;;;;10.39;100.00;100680.56;5042331;28;20448;-54
2022/10/05 04:56:40;;;;;;;1.80;1.70;;;;;;;10.33;100.00;100670.97;5042769;28;20478;-55
2022/10/05 04:59:59;;;;;;;2.50;1.20;;;;;;;10.14;100.00;100674.84;5037861;28;21007;-55
2022/10/05 05:02:47;;;;;;;2.60;1.20;;;;;;;10.28;100.00;100677.25;5027884;28;20857;-54
2022/10/05 05:05:42;;;;;;;10.40;1.87;;;;;;;10.35;100.00;100678.91;5042491;28;20456;-54
2022/10/05 05:08:44;;;;;;;3.10;2.40;;;;;;;10.52;100.00;100673.22;5042771;28;20537;-54
2022/10/05 05:11:37;;;;;;;2.13;1.97;;;;;;;10.65;100.00;100680.88;5037133;28;20455;-54
2022/10/05 05:14:19;;;;;;;1.93;1.57;;;;;;;10.55;100.00;100678.44;5037734;28;20508;-55
2022/10/05 05:17:00;;;;;;;2.43;2.33;;;;;;;10.65;100.00;100677.34;5036412;28;20470;-54
2022/10/05 05:19:48;;;;;;;2.10;2.00;;;;;;;10.71;100.00;100674.56;5033621;28;20532;-54
2022/10/05 05:22:36;;;;;;;3.43;3.23;;;;;;;10.67;100.00;100676.38;5041788;28;20552;-55
2022/10/05 05:25:29;;;;;;;3.23;1.83;;;;;;;10.66;100.00;100665.78;5019972;28;20505;-54
2022/10/05 05:28:21;;;;;;;24.60;4.27;;;;;;;10.73;100.00;100670.06;5042693;28;20451;-54
2022/10/05 05:30:55;;;;;;;4.37;2.30;;;;;;;10.71;100.00;100677.22;5038007;28;20498;-54
2022/10/05 05:33:40;;;;;;;2.33;2.23;;;;;;;10.70;100.00;100675.47;5030096;28;20447;-54
2022/10/05 05:36:24;;;;;;;1.63;1.50;;;;;;;10.61;100.00;100679.19;5035455;28;20820;-54
2022/10/05 05:38:50;;;;;;;1.97;1.87;;;;;;;10.71;100.00;100677.22;5035298;28;20932;-54
2022/10/05 05:41:17;;;;;;;4.23;2.83;;;;;;;10.76;100.00;100680.63;5047122;28;20516;-54
2022/10/05 05:44:14;;;;;;;3.53;3.23;;;;;;;10.74;100.00;100677.13;5035163;28;20867;-54
2022/10/05 05:47:22;;;;;;;3.03;2.50;;;;;;;10.83;100.00;100673.41;5034974;28;20463;-54
2022/10/05 05:49:52;;;;;;;7.10;3.17;;;;;;;10.81;100.00;100684.06;5033610;28;20853;-54
2022/10/05 05:52:27;;;;;;;6.97;3.80;;;;;;;10.82;100.00;100685.78;5035198;28;20459;-54
2022/10/05 05:54:59;;;;;;;3.93;3.60;;;;;;;10.79;100.00;100687.66;5035370;28;20434;-54
2022/10/05 05:57:37;;;;;;;1.90;1.80;;;;;;;10.81;100.00;100686.72;5042752;28;20483;-54
2022/10/05 06:00:13;;;;;;;2.90;2.00;;;;;;;10.88;100.00;100684.78;5035304;28;20447;-54
2022/10/05 06:02:53;;;;;;;3.27;3.03;;;;;;;10.76;100.00;100693.94;5044779;28;20505;-54
2022/10/05 06:05:24;;;;;;;4.33;2.70;;;;;;;10.85;100.00;100698.19;5028702;28;20514;-55
2022/10/05 06:07:53;;;;;;;3.00;2.80;;;;;;;10.96;100.00;100696.13;5030935;28;20525;-54
2022/10/05 06:10:40;;;;;;;6.97;3.57;;;;;;;10.93;100.00;100694.41;5034005;28;20540;-55
2022/10/05 06:13:20;;;;;;;9.77;3.43;;;;;;;11.00;100.00;100696.94;5031337;28;20454;-54
2022/10/05 06:16:00;;;;;;;4.03;3.60;;;;;;;10.99;100.00;100685.44;5040369;28;20474;-54
2022/10/05 06:18:30;;;;;;;3.00;2.80;;;;;;;10.95;100.00;100694.38;5023170;28;20451;-54
2022/10/05 06:20:57;;;;;;;10.23;2.90;;;;;;;10.91;100.00;100701.56;5036286;28;20913;-54
2022/10/05 06:23:33;;;;;;;6.27;4.57;;;;;;;10.88;100.00;100709.59;5036171;28;20897;-54
2022/10/05 06:26:18;;;;;;;6.10;2.13;;;;;;;10.87;100.00;100705.19;5035327;28;20541;-55
2022/10/05 06:28:51;;;;;;;6.23;2.60;;;;;;;10.97;100.00;100697.88;5036228;28;20459;-54
2022/10/05 06:31:48;;;;;;;3.13;2.83;;;;;;;10.94;100.00;100697.94;5041907;28;20456;-54
2022/10/05 06:34:37;;;;;;;3.20;3.00;;;;;;;11.07;100.00;100696.75;5040661;28;20455;-54
2022/10/05 06:37:12;;;;;;;6.50;2.70;;;;;;;11.02;100.00;100700.44;5031231;28;20841;-54
2022/10/05 06:40:16;;;;;;;2.97;1.90;;;;;;;11.11;100.00;100694.91;5039827;28;20446;-54
2022/10/05 06:42:51;;;;;;;2.73;2.53;;;;;;;11.23;100.00;100702.56;5028275;28;20545;-54
2022/10/05 06:45:29;;;;;;;4.30;4.00;;;;;;;11.32;100.00;100698.81;5041313;28;20455;-54
2022/10/05 06:48:18;;;;;;;3.97;2.50;;;;;;;11.32;100.00;100691.69;5038539;28;20969;-55
2022/10/05 06:50:54;;;;;;;3.20;2.90;;;;;;;11.39;100.00;100693.31;5021535;28;20509;-52
2022/10/05 06:53:32;;;;;;;11.63;3.13;;;;;;;11.45;100.00;100694.91;5044664;28;20462;-52
2022/10/05 06:56:08;;;;;;;5.27;2.83;;;;;;;11.60;100.00;100694.50;5037773;28;20478;-52
2022/10/05 06:58:57;;;;;;;4.27;3.87;;;;;;;11.67;100.00;100684.59;5039420;28;20501;-52
2022/10/05 07:01:30;;;;;;;3.23;3.03;;;;;;;11.76;100.00;100697.63;5039130;28;20517;-53
2022/10/05 07:04:34;;;;;;;3.80;3.30;;;;;;;11.89;100.00;100692.88;5039640;28;21013;-52
2022/10/05 07:07:22;;;;;;;5.77;3.20;;;;;;;11.91;100.00;100691.94;5038701;28;20474;-52
2022/10/05 07:09:58;;;;;;;7.13;4.03;;;;;;;11.99;100.00;100702.38;5038451;28;20967;-52
2022/10/05 07:12:38;;;;;;;34.83;3.70;;;;;;;12.15;100.00;100695.72;5033857;28;20513;-52
2022/10/05 07:15:29;;;;;;;15.07;4.67;;;;;;;12.23;100.00;100703.50;5034659;28;20462;-52
2022/10/05 07:18:13;;;;;;;6.53;3.90;;;;;;;12.41;100.00;100705.63;5044664;28;20455;-52
2022/10/05 07:20:54;;;;;;;4.43;4.03;;;;;;;12.55;100.00;100697.22;5044006;28;20458;-52
2022/10/05 07:23:20;;;;;;;3.33;3.13;;;;;;;12.62;100.00;100706.78;5032820;28;20476;-52
2022/10/05 07:25:59;;;;;;;4.57;4.07;;;;;;;12.62;100.00;100699.66;5042749;28;21018;-52
2022/10/05 07:28:58;;;;;;;3.23;3.03;;;;;;;12.80;100.00;100708.00;5040598;28;20519;-51
2022/10/05 07:31:45;;;;;;;3.70;3.40;;;;;;;12.88;100.00;100712.16;4994727;28;20456;-52
2022/10/05 07:34:17;;;;;;;7.00;2.93;;;;;;;12.94;100.00;100709.31;5045547;28;20451;-51
2022/10/05 07:40:08;;;;;;;3.90;3.60;;;;;;;12.94;100.00;100708.44;5034332;28;20850;-51
2022/10/05 07:42:55;;;;;;;3.03;2.83;;;;;;;13.00;100.00;100717.13;5038480;28;20495;-51
2022/10/05 07:45:43;;;;;;;5.77;5.10;;;;;;;13.13;100.00;100706.94;5035301;28;20525;-52
2022/10/05 07:48:14;;;;;;;4.33;4.03;;;;;;;13.16;100.00;100706.84;5039384;28;21091;-51
2022/10/05 07:51:10;;;;;;;3.77;3.57;;;;;;;13.22;100.00;100711.13;5048162;28;21120;-52
2022/10/05 07:53:41;;;;;;;4.17;3.10;;;;;;;13.26;100.00;100707.44;5041557;28;20459;-52
2022/10/05 07:56:20;;;;;;;3.87;3.57;;;;;;;13.18;100.00;100709.47;5031756;28;20487;-52
2022/10/05 07:58:56;;;;;;;3.93;2.83;;;;;;;13.36;100.00;100711.56;5042220;28;20462;-52
2022/10/05 08:01:25;;;;;;;3.90;3.70;;;;;;;13.36;100.00;100708.88;5033714;28;20544;-52
2022/10/05 08:04:02;;;;;;;3.30;3.10;;;;;;;13.50;100.00;100711.97;5041501;28;20576;-52
2022/10/05 08:06:37;;;;;;;3.43;3.23;;;;;;;13.53;100.00;100708.31;5034511;28;20476;-52
2022/10/05 08:09:17;;;;;;;3.00;2.80;;;;;;;13.53;100.00;100713.66;5030209;28;20451;-53
2022/10/05 08:12:11;;;;;;;5.17;2.33;;;;;;;13.56;100.00;100711.75;5038606;28;20497;-52
2022/10/05 08:15:02;;;;;;;3.43;3.13;;;;;;;13.72;100.00;100700.56;5044054;28;20422;-52
2022/10/05 08:17:50;;;;;;;4.00;3.67;;;;;;;13.74;100.00;100704.03;5027560;28;20848;-52
2022/10/05 08:20:27;;;;;;;3.47;3.20;;;;;;;13.70;100.00;100705.94;5039815;28;20959;-52
2022/10/05 08:23:00;;;;;;;4.13;3.83;;;;;;;13.84;100.00;100694.75;5034969;28;20493;-52
2022/10/05 08:25:56;;;;;;;4.03;3.07;;;;;;;13.85;100.00;100694.72;5036792;28;20505;-52
2022/10/05 08:28:30;;;;;;;3.50;3.20;;;;;;;13.76;100.00;100689.69;5039298;28;20504;-52
2022/10/05 08:31:31;;;;;;;6.90;4.50;;;;;;;14.02;100.00;100686.09;5040686;28;20450;-53
2022/10/05 08:34:00;;;;;;;32.50;4.83;;;;;;;14.11;100.00;100690.22;5031248;28;20497;-52
2022/10/05 08:36:43;;;;;;;4.47;4.07;;;;;;;14.22;100.00;100690.69;5036188;28;20530;-52
2022/10/05 08:39:18;;;;;;;4.30;3.87;;;;;;;14.35;100.00;100683.97;5034435;28;20450;-52
2022/10/05 08:42:12;;;;;;;35.10;4.30;;;;;;;14.37;100.00;100682.09;5037712;28;20505;-52
2022/10/05 08:45:03;;;;;;;2.93;2.73;;;;;;;14.52;100.00;100684.22;5033944;28;20498;-52
2022/10/05 08:48:02;;;;;;;4.13;3.83;;;;;;;14.78;100.00;100685.88;5031154;28;20453;-52
2022/10/05 08:50:53;;;;;;;5.27;4.80;;;;;;;14.95;100.00;100681.69;5021658;28;20920;-52
2022/10/05 08:53:35;;;;;;;3.70;3.43;;;;;;;15.18;100.00;100686.94;5039797;28;20458;-52
2022/10/05 08:56:28;;;;;;;3.97;3.67;;;;;;;15.17;100.00;100684.34;5037462;28;20584;-52
2022/10/05 08:59:22;;;;;;;3.47;3.27;;;;;;;15.12;100.00;100687.22;5035048;28;20450;-52
2022/10/05 09:02:17;;;;;;;3.33;3.13;;;;;;;15.03;100.00;100675.06;5042978;28;20461;-52
2022/10/05 09:04:53;;;;;;;5.03;4.53;;;;;;;15.45;100.00;100674.22;5035855;28;20491;-52
2022/10/05 09:07:50;;;;;;;4.07;3.50;;;;;;;15.38;100.00;100680.78;5039079;28;21003;-52
2022/10/05 09:10:38;;;;;;;2.50;2.30;;;;;;;15.53;100.00;100672.09;5033336;28;20956;-53
2022/10/05 09:13:40;;;;;;;2.30;2.20;;;;;;;15.58;100.00;100674.56;5041382;28;20951;-52
2022/10/05 09:16:38;;;;;;;3.73;3.40;;;;;;;15.70;100.00;100672.25;5037301;28;20532;-52
2022/10/05 09:19:32;;;;;;;2.73;2.53;;;;;;;15.88;100.00;100683.09;5024541;28;20458;-52
2022/10/05 09:22:40;;;;;;;3.03;2.60;;;;;;;15.96;100.00;100673.78;5030458;28;20463;-52
2022/10/05 09:25:17;;;;;;;2.43;2.23;;;;;;;15.97;100.00;100685.38;5027678;28;20446;-52
2022/10/05 09:28:03;;;;;;;6.10;2.43;;;;;;;16.15;100.00;100678.31;5030931;28;20470;-52
2022/10/05 09:30:59;;;;;;;2.73;2.50;;;;;;;16.19;100.00;100678.13;5035532;28;20426;-52
2022/10/05 09:33:44;;;;;;;3.20;3.00;;;;;;;16.00;100.00;100677.19;5027850;28;20549;-52
2022/10/05 09:36:24;;;;;;;2.37;2.27;;;;;;;16.15;100.00;100673.81;5028325;28;20896;-52
2022/10/05 09:38:59;;;;;;;3.07;2.87;;;;;;;16.27;100.00;100667.91;5041030;28;20709;-52
2022/10/05 09:41:35;;;;;;;1.47;1.30;;;;;;;16.21;100.00;100676.25;5039517;28;20990;-54
2022/10/05 09:44:26;;;;;;;2.70;2.60;;;;;;;16.36;100.00;100681.84;5035598;28;20881;-54
2022/10/05 09:46:53;;;;;;;10.63;2.70;;;;;;;16.14;100.00;100673.91;5034214;28;20533;-54
2022/10/05 09:49:46;;;;;;;2.80;2.60;;;;;;;16.14;100.00;100669.41;5040622;28;20514;-52
2022/10/05 09:52:50;;;;;;;6.10;4.00;;;;;;;16.41;100.00;100671.75;5036761;28;20449;-52
2022/10/05 09:55:38;;;;;;;2.50;2.37;;;;;;;16.58;100.00;100670.06;5035358;28;20458;-54
2022/10/05 09:58:35;;;;;;;3.50;3.20;;;;;;;16.70;100.00;100663.25;5045551;28;20458;-55
2022/10/05 10:01:20;;;;;;;2.50;2.40;;;;;;;16.66;100.00;100650.88;5029444;28;20516;-54
2022/10/05 10:04:23;;;;;;;3.73;3.40;;;;;;;16.66;100.00;100650.00;5025691;28;20490;-54
2022/10/05 10:07:12;;;;;;;3.53;3.03;;;;;;;17.14;100.00;100644.09;5042422;28;20909;-55
2022/10/05 10:10:03;;;;;;;4.27;3.40;;;;;;;16.96;100.00;100648.56;5043705;28;20496;-52
2022/10/05 10:13:03;;;;;;;16.00;4.10;;;;;;;16.87;100.00;100646.34;5036748;28;20466;-52
2022/10/05 10:15:51;;;;;;;8.53;3.30;;;;;;;16.82;100.00;100638.47;5035554;28;20910;-53
2022/10/05 10:18:38;;;;;;;2.10;2.00;;;;;;;16.80;100.00;100642.19;5044714;28;20452;-52
2022/10/05 10:21:35;;;;;;;2.60;2.47;;;;;;;16.91;100.00;100639.88;5041846;28;20429;-52
2022/10/05 10:24:12;;;;;;;2.60;2.37;;;;;;;17.06;100.00;100639.09;5031593;28;20604;-53
2022/10/05 10:27:12;;;;;;;3.77;1.83;;;;;;;17.00;100.00;100642.09;5023565;28;20514;-52
2022/10/05 10:29:53;;;;;;;5.53;2.00;;;;;;;17.15;100.00;100632.41;5035082;28;20447;-52
2022/10/05 10:32:38;;;;;;;1.63;1.53;;;;;;;17.08;100.00;100636.34;5034784;28;20941;-53
2022/10/05 10:35:26;;;;;;;2.80;2.47;;;;;;;17.43;100.00;100635.44;5039114;28;20520;-52
2022/10/05 10:38:23;;;;;;;2.87;1.57;;;;;;;17.53;100.00;100641.19;5035133;28;21009;-52
2022/10/05 10:41:20;;;;;;;4.03;1.47;;;;;;;17.47;100.00;100633.44;5038012;28;20455;-55
2022/10/05 10:44:24;;;;;;;1.90;1.80;;;;;;;17.50;100.00;100625.22;5038488;28;20490;-54
2022/10/05 10:47:22;;;;;;;4.63;1.03;;;;;;;17.78;100.00;100624.69;5038367;28;20453;-55
2022/10/05 10:49:57;;;;;;;4.03;1.40;;;;;;;17.97;100.00;100628.13;5047353;28;20947;-54
2022/10/05 10:52:45;;;;;;;2.33;1.40;;;;;;;17.84;100.00;100619.00;5030820;28;20804;-55
2022/10/05 10:55:34;;;;;;;0.93;0.87;;;;;;;18.09;100.00;100625.72;5038328;28;20473;-53
2022/10/05 10:58:30;;;;;;;1.57;1.40;;;;;;;18.12;100.00;100622.88;5038697;28;20496;-52
2022/10/05 11:01:14;;;;;;;1.13;1.03;;;;;;;18.27;100.00;100619.34;5022847;28;20448;-53
2022/10/05 11:03:51;;;;;;;0.83;0.80;;;;;;;18.32;100.00;100617.25;5043352;28;20496;-52
2022/10/05 11:06:41;;;;;;;1.63;1.53;;;;;;;18.75;99.39;100628.34;5037973;28;20840;-52
2022/10/05 11:09:59;;;;;;;1.27;1.10;;;;;;;19.08;97.73;100623.72;5040892;28;20438;-53
2022/10/05 11:12:28;;;;;;;1.83;1.73;;;;;;;19.13;97.19;100615.34;5025597;28;20875;-53
2022/10/05 11:15:05;;;;;;;2.57;2.37;;;;;;;18.92;97.24;100620.19;5031982;28;20421;-53
2022/10/05 11:17:59;;;;;;;1.37;1.27;;;;;;;19.07;97.85;100613.03;5044738;28;20471;-52
2022/10/05 11:20:28;;;;;;;1.50;1.40;;;;;;;19.20;96.93;100608.66;5036904;28;20817;-53
2022/10/05 11:23:02;;;;;;;1.87;1.77;;;;;;;19.27;96.52;100601.94;5047159;28;20484;-53
2022/10/05 11:25:44;;;;;;;2.30;1.53;;;;;;;19.18;96.75;100608.72;5031243;28;20451;-53
2022/10/05 11:28:33;;;;;;;5.63;2.07;;;;;;;19.32;96.47;100609.72;5038954;28;20429;-52
2022/10/05 11:31:36;;;;;;;5.27;0.90;;;;;;;19.23;97.00;100603.94;5046534;28;20484;-52
2022/10/05 11:34:21;;;;;;;15.63;0.90;;;;;;;19.43;95.58;100618.91;5038491;28;20457;-54
2022/10/05 11:37:09;;;;;;;1.27;1.17;;;;;;;19.50;96.02;100622.13;5039253;28;20893;-55
2022/10/05 11:40:09;;;;;;;1.10;1.00;;;;;;;19.63;95.57;100609.66;5027900;28;20475;-54
2022/10/05 11:43:22;;;;;;;0.87;0.87;;;;;;;19.48;95.35;100607.88;5039860;28;20430;-52
2022/10/05 11:46:04;;;;;;;1.00;0.97;;;;;;;19.48;96.41;100607.88;5044287;28;20438;-53
2022/10/05 11:49:08;;;;;;;1.53;1.40;;;;;;;19.55;94.62;100598.47;5044094;28;20922;-51
2022/10/05 11:51:59;;;;;;;1.27;0.90;;;;;;;19.67;95.30;100604.94;5030590;28;20501;-52
2022/10/05 11:54:31;;;;;;;4.40;1.37;;;;;;;19.98;93.40;100603.91;5040511;28;20471;-52
2022/10/05 11:57:24;;;;;;;1.20;1.10;;;;;;;20.00;92.52;100600.16;5043503;28;20464;-52
2022/10/05 12:00:11;;;;;;;1.23;1.13;;;;;;;20.27;92.92;100608.34;5035649;28;20434;-52
2022/10/05 12:02:46;;;;;;;2.00;1.80;;;;;;;20.10;93.66;100597.75;5041547;28;20483;-52
2022/10/05 12:05:23;;;;;;;1.40;1.30;;;;;;;20.33;92.58;100596.28;5037033;28;20489;-54
2022/10/05 12:07:52;;;;;;;1.13;1.03;;;;;;;20.12;93.36;100596.69;5024024;28;20454;-54
2022/10/05 12:10:41;;;;;;;2.60;1.67;;;;;;;20.11;93.36;100591.38;5020590;28;20451;-53
2022/10/05 12:13:39;;;;;;;1.20;1.10;;;;;;;20.47;92.35;100584.63;5047447;28;20491;-54
2022/10/05 12:16:21;;;;;;;4.03;1.70;;;;;;;20.21;92.80;100589.84;5048357;28;20475;-54
2022/10/05 12:18:57;;;;;;;2.30;1.50;;;;;;;20.16;93.80;100578.47;5040213;28;20481;-54
2022/10/05 12:21:35;;;;;;;2.70;2.07;;;;;;;20.03;93.78;100585.63;5017254;28;20426;-54
2022/10/05 12:24:13;;;;;;;1.30;1.20;;;;;;;19.86;95.41;100577.69;5042817;28;20970;-54
2022/10/05 12:26:48;;;;;;;1.70;1.60;;;;;;;20.01;94.54;100579.44;5027614;28;20445;-54
2022/10/05 12:29:40;;;;;;;3.60;1.77;;;;;;;19.95;94.71;100583.38;5031122;28;20453;-54
2022/10/05 12:32:18;;;;;;;2.13;1.77;;;;;;;20.11;94.39;100567.09;5023226;28;20452;-54
2022/10/05 12:34:58;;;;;;;1.97;1.50;;;;;;;20.01;94.61;100574.03;5030461;28;20442;-53
2022/10/05 12:37:52;;;;;;;2.30;1.70;;;;;;;19.78;94.20;100560.16;5035280;28;20528;-54
2022/10/05 12:40:21;;;;;;;2.20;1.47;;;;;;;19.55;95.54;100560.72;5044086;28;20455;-54